Gorham, Kansas
Current Conditions -  °F | °C
As of 4:53 PM on Wednesday 22 Oct 2014 (Local Time) from KRSL Reporting Station
Broken Clouds Broken Clouds  
Wind Chill: 67°   Ceiling: 6000
Heat Index: 67°   Visibility: 10mi
Dew Point: 55°   Wind: 24mph
Humidity: 66%   Direction: 180°S
Pressure: 29.99"   Gusts: NA
Location:  38.88°N, 99.02°W
Report Text: KRSL 222153Z AUTO 18021KT 10SM BKN060 19/13 A2999 RMK AO2 PK WND 19028/2135 RAE2059 SLP147 P0000 T01940128
Loading
Personal Weather Stations






























Interactive Weather Map New forecast layout! Learn more

10-Day Weather Forecast

Advertisements
Track Severe Weather on mobile